24°C
Woerden, The Nederlands
Taal:  Nederlands
Updated05/08/2020 13:30 
 

Nearby METAR Reports

EHAM - Amsterdam/Schiph, Netherlands
Distance from station: N 27km
Updated: 05/08/2020 13:25
Helder
Helder
 Wind van ZZW
Wind: ZZW 24 km/h
Temperatuur: 24°C
Dauwpunt: 12°C
Vochtigheid: 47%
Barometer: 1015 hPa
Overzicht: Helder
Visibility: greater than 10 km
2020/08/05 11:25 EHAM 051125Z 21013KT 180V250 CAVOK 24/12 Q1015 NOSIG
EHRD - Rotterdam Airpor, Netherlands
Distance from station: WZW 30km
Updated: 05/08/2020 13:25
Helder
Helder
 Wind van ZW
Wind: ZW 22 km/h
Temperatuur: 25°C
Dauwpunt: 11°C
Vochtigheid: 42%
Barometer: 1015 hPa
Clouds: Helder
Visibility: 10 km
2020/08/05 11:25 EHRD 051125Z AUTO 22012KT 180V250 9999 NCD 25/11 Q1015 NOSIG
 
EHGR - Gilze-Rijen Rnla, Netherlands
Distance from station: Z 57km
Updated: 05/08/2020 13:25
Helder
Helder
 Wind van ZZW
Wind: ZZW 19 km/h
Temperatuur: 27°C
Dauwpunt: 10°C
Vochtigheid: 34%
Barometer: 1015 hPa
Clouds: Helder
Visibility: 10 km
2020/08/05 11:25 EHGR 051125Z AUTO 20010KT 130V280 9999 NCD 27/10 Q1015 BLU NOSIG
EHDL - Deelen Rnlafb, Netherlands
Distance from station: O 71km
Updated: 05/08/2020 13:25
Helder
Helder
 Wind van ZW
Wind: ZW 22 km/h
Temperatuur: 25°C
Dauwpunt: 9°C
Vochtigheid: 36%
Barometer: 1016 hPa
Clouds: Helder
Visibility: 10 km
2020/08/05 11:25 EHDL 051125Z AUTO 22012KT 140V280 9999 NCD 25/09 Q1016 BLU
 
EHVK - Volkel Rnlafb, Netherlands
Distance from station: ZO 77km
Updated: 05/08/2020 13:25
Helder
Helder
 Wind van ZZW
Wind: ZZW 15 km/h
Temperatuur: 27°C
Dauwpunt: 9°C
Vochtigheid: 32%
Barometer: 1016 hPa
Clouds: Helder
Visibility: 10 km
2020/08/05 11:25 EHVK 051125Z AUTO 20008KT 140V260 9999 NCD 27/09 Q1016 BLU NOSIG
EHWO - Woensdrecht Rnla, Netherlands
Distance from station: ZZW 78km
Updated: 05/08/2020 13:25
Helder
Helder
 Wind van Z
Wind: Z 15 km/h
Temperatuur: 25°C
Dauwpunt: 10°C
Vochtigheid: 39%
Barometer: 1015 hPa
Clouds: Helder
Visibility: 10 km
2020/08/05 11:25 EHWO 051125Z AUTO 19008KT 140V230 9999 NCD 25/10 Q1015 BLU
 
EHEH - Eindhoven Rnlafb, Netherlands
Distance from station: ZZO 81km
Updated: 05/08/2020 13:25
Helder
Helder
 Wind van ZW
Wind: ZW 15 km/h
Temperatuur: 27°C
Dauwpunt: 9°C
Vochtigheid: 32%
Barometer: 1016 hPa
Clouds: Helder
Visibility: 10 km
2020/08/05 11:25 EHEH 051125Z AUTO 22008KT 160V270 9999 NCD 27/09 Q1016 BLU BECMG 21010KT
EHSC - Goeree Le Sea, Netherlands
Distance from station: W 81km
Updated: 05/08/2020 13:25

 Wind van ZZW
Wind: ZZW 20 km/h
Temperatuur: 20°C
Dauwpunt: 14°C
Vochtigheid: 69%
Barometer: 1015 hPa
Visibility: 10 km
2020/08/05 11:25 EHSC 051125Z AUTO 20011KT 9999 ///////// 20/14 Q1015 W19/H10